createdAt,value
2023-04-24T00:01:53.336Z,100.00
2023-04-24T00:04:41.484Z,100.00
2023-04-24T00:07:29.585Z,100.00
2023-04-24T00:10:16.282Z,100.00
2023-04-24T00:13:03.115Z,100.00
2023-04-24T00:15:49.797Z,100.00
2023-04-24T00:18:36.622Z,100.00
2023-04-24T00:21:26.670Z,100.00
2023-04-24T00:24:14.616Z,100.00
2023-04-24T00:27:02.092Z,100.00
2023-04-24T00:29:48.764Z,100.00
2023-04-24T00:32:35.464Z,100.00
2023-04-24T00:35:22.161Z,100.00
2023-04-24T00:38:08.901Z,100.00
2023-04-24T00:40:57.057Z,100.00
2023-04-24T00:43:43.910Z,100.00
2023-04-24T00:46:31.183Z,100.00
2023-04-24T00:49:20.298Z,100.00
2023-04-24T00:52:09.830Z,100.00
2023-04-24T00:54:56.682Z,100.00
2023-04-24T00:57:44.859Z,100.00
2023-04-24T01:00:31.332Z,100.00
2023-04-24T01:03:19.664Z,100.00
2023-04-24T01:06:07.508Z,100.00
2023-04-24T01:08:54.521Z,100.00
2023-04-24T01:11:43.570Z,100.00
2023-04-24T01:14:33.414Z,100.00
2023-04-24T01:17:20.169Z,100.00
2023-04-24T01:20:09.170Z,100.00
2023-04-24T01:22:58.542Z,100.00
2023-04-24T01:25:45.476Z,100.00
2023-04-24T01:28:32.726Z,100.00
2023-04-24T01:31:19.582Z,100.00
2023-04-24T01:34:06.606Z,100.00
2023-04-24T01:36:53.511Z,100.00
2023-04-24T01:39:41.992Z,100.00
2023-04-24T01:42:29.051Z,100.00
2023-04-24T01:45:15.643Z,100.00
2023-04-24T01:48:02.664Z,100.00
2023-04-24T01:50:49.043Z,100.00
2023-04-24T01:53:36.080Z,100.00
2023-04-24T01:56:25.162Z,100.00
2023-04-24T01:59:12.628Z,100.00
2023-04-24T02:01:59.674Z,100.00
2023-04-24T02:04:46.602Z,100.00
2023-04-24T02:07:33.862Z,100.00
2023-04-24T02:10:20.485Z,100.00
2023-04-24T02:13:08.735Z,100.00
2023-04-24T02:15:55.552Z,100.00
2023-04-24T02:18:43.766Z,100.00
2023-04-24T02:21:31.798Z,100.00
2023-04-24T02:24:18.408Z,100.00
2023-04-24T02:27:05.515Z,100.00
2023-04-24T02:29:53.338Z,100.00
2023-04-24T02:32:40.250Z,100.00
2023-04-24T02:35:30.095Z,100.00
2023-04-24T02:38:16.758Z,100.00
2023-04-24T02:41:07.230Z,100.00
2023-04-24T02:43:54.082Z,100.00
2023-04-24T02:46:43.064Z,100.00
2023-04-24T02:49:29.495Z,100.00
2023-04-24T02:52:17.862Z,100.00
2023-04-24T02:55:05.051Z,100.00
2023-04-24T02:57:51.530Z,100.00
2023-04-24T03:00:38.226Z,100.00
2023-04-24T03:03:26.633Z,100.00
2023-04-24T03:06:13.295Z,100.00
2023-04-24T03:09:00.058Z,100.00
2023-04-24T03:11:46.865Z,100.00
2023-04-24T03:14:34.179Z,100.00
2023-04-24T03:17:20.620Z,100.00
2023-04-24T03:20:10.283Z,100.00
2023-04-24T03:22:58.255Z,100.00
2023-04-24T03:25:46.399Z,100.00
2023-04-24T03:28:33.388Z,100.00
2023-04-24T03:31:23.721Z,100.00
2023-04-24T03:34:11.122Z,100.00
2023-04-24T03:36:59.243Z,100.00
2023-04-24T03:39:47.023Z,100.00
2023-04-24T03:42:36.014Z,100.00
2023-04-24T03:45:24.204Z,100.00
2023-04-24T03:48:12.312Z,100.00
2023-04-24T03:50:59.198Z,100.00
2023-04-24T03:53:47.238Z,100.00
2023-04-24T03:56:37.833Z,100.00
2023-04-24T03:59:24.577Z,100.00
2023-04-24T04:02:29.723Z,100.00
2023-04-24T04:05:16.946Z,100.00
2023-04-24T04:08:03.625Z,100.00
2023-04-24T04:10:51.730Z,100.00
2023-04-24T04:13:38.468Z,100.00
2023-04-24T04:16:25.583Z,100.00
2023-04-24T04:19:16.976Z,100.00
2023-04-24T04:22:03.900Z,100.00
2023-04-24T04:24:59.783Z,100.00
2023-04-24T04:27:48.859Z,100.00
2023-04-24T04:30:35.628Z,100.00
2023-04-24T04:33:24.402Z,100.00
2023-04-24T04:36:11.379Z,100.00
2023-04-24T04:39:03.818Z,100.00
2023-04-24T04:42:07.874Z,100.00
2023-04-24T04:45:06.052Z,100.00
2023-04-24T04:48:04.669Z,100.00
2023-04-24T04:50:52.111Z,100.00
2023-04-24T04:53:40.823Z,100.00
2023-04-24T04:56:27.889Z,100.00
2023-04-24T04:59:16.958Z,100.00
2023-04-24T05:02:05.169Z,100.00
2023-04-24T05:04:51.816Z,100.00
2023-04-24T05:07:38.587Z,100.00
2023-04-24T05:10:25.560Z,100.00
2023-04-24T05:13:14.810Z,100.00
2023-04-24T05:16:01.601Z,100.00
2023-04-24T05:18:51.261Z,100.00
2023-04-24T05:21:42.198Z,100.00
2023-04-24T05:24:30.284Z,100.00
2023-04-24T05:27:23.234Z,100.00
2023-04-24T05:30:11.642Z,100.00
2023-04-24T05:32:58.344Z,100.00
2023-04-24T05:35:47.952Z,100.00
2023-04-24T05:38:35.158Z,100.00
2023-04-24T05:41:22.362Z,100.00
2023-04-24T05:44:09.059Z,100.00
2023-04-24T05:46:57.046Z,100.00
2023-04-24T05:49:44.124Z,100.00
2023-04-24T05:52:32.238Z,100.00
2023-04-24T05:55:19.619Z,100.00
2023-04-24T05:58:07.450Z,100.00
2023-04-24T06:00:56.297Z,100.00
2023-04-24T06:03:43.492Z,100.00
2023-04-24T06:06:30.097Z,100.00
2023-04-24T06:09:19.079Z,100.00
2023-04-24T06:12:06.015Z,100.00
2023-04-24T06:15:07.407Z,100.00
2023-04-24T06:18:32.212Z,100.00
2023-04-24T06:21:18.738Z,100.00
2023-04-24T06:24:05.946Z,100.00
2023-04-24T06:26:54.103Z,100.00
2023-04-24T06:29:41.335Z,100.00
2023-04-24T06:32:29.184Z,100.00
2023-04-24T06:35:16.499Z,100.00
2023-04-24T06:38:02.907Z,100.00
2023-04-24T06:40:49.908Z,100.00
2023-04-24T06:43:37.628Z,97.51
2023-04-24T06:46:27.315Z,100.00
2023-04-24T06:49:17.138Z,97.11
2023-04-24T06:52:03.978Z,99.70
2023-04-24T06:54:50.988Z,100.00
2023-04-24T06:57:37.485Z,100.00
2023-04-24T07:00:25.963Z,98.21
2023-04-24T07:03:12.869Z,99.83
2023-04-24T07:05:59.988Z,98.47
2023-04-24T07:08:46.620Z,99.18
2023-04-24T07:11:33.967Z,99.66
2023-04-24T07:14:21.593Z,98.19
2023-04-24T07:17:09.601Z,96.26
2023-04-24T07:19:56.397Z,97.96
2023-04-24T07:22:43.147Z,96.64
2023-04-24T07:25:29.956Z,90.91
2023-04-24T07:28:16.802Z,89.84
2023-04-24T07:31:03.706Z,89.18
2023-04-24T07:33:51.746Z,85.83
2023-04-24T07:36:39.392Z,87.78
2023-04-24T07:39:27.261Z,83.99
2023-04-24T07:42:13.887Z,83.44
2023-04-24T07:45:00.899Z,84.73
2023-04-24T07:47:47.601Z,83.86
2023-04-24T07:50:35.900Z,76.88
2023-04-24T07:53:22.405Z,76.47
2023-04-24T07:56:09.202Z,78.18
2023-04-24T07:58:55.956Z,76.36
2023-04-24T08:01:42.806Z,77.67
2023-04-24T08:04:29.691Z,76.86
2023-04-24T08:07:18.082Z,79.38
2023-04-24T08:10:05.100Z,75.23
2023-04-24T08:12:51.973Z,79.04
2023-04-24T08:15:38.831Z,76.15
2023-04-24T08:18:25.810Z,71.93
2023-04-24T08:21:14.030Z,74.81
2023-04-24T08:24:06.123Z,71.32
2023-04-24T08:26:53.283Z,70.62
2023-04-24T08:29:40.251Z,68.82
2023-04-24T08:32:28.950Z,65.35
2023-04-24T08:35:15.360Z,65.60
2023-04-24T08:38:02.193Z,64.54
2023-04-24T08:40:51.103Z,64.44
2023-04-24T08:43:39.089Z,64.03
2023-04-24T08:46:26.734Z,61.08
2023-04-24T08:49:14.661Z,64.89
2023-04-24T08:52:02.244Z,63.97
2023-04-24T08:54:49.448Z,54.41
2023-04-24T08:57:41.101Z,57.19
2023-04-24T09:00:28.290Z,56.10
2023-04-24T09:03:16.690Z,55.16
2023-04-24T09:06:04.550Z,53.49
2023-04-24T09:08:54.838Z,50.28
2023-04-24T09:11:42.071Z,49.37
2023-04-24T09:14:33.000Z,48.17
2023-04-24T09:20:07.980Z,45.06
2023-04-24T09:22:57.314Z,46.85
2023-04-24T09:25:43.833Z,50.08
2023-04-24T09:28:34.258Z,51.30
2023-04-24T09:31:23.820Z,51.68
2023-04-24T09:34:10.723Z,54.46
2023-04-24T09:36:57.182Z,53.15
2023-04-24T09:39:44.139Z,54.63
2023-04-24T09:42:31.611Z,56.12
2023-04-24T09:45:18.832Z,52.64
2023-04-24T09:48:07.510Z,55.78
2023-04-24T09:50:54.629Z,55.80
2023-04-24T09:53:41.508Z,55.34
2023-04-24T09:56:35.492Z,53.51
2023-04-24T09:59:22.139Z,56.26
2023-04-24T10:02:19.481Z,55.94
2023-04-24T10:05:08.669Z,55.77
2023-04-24T10:07:59.200Z,53.74
2023-04-24T10:10:47.366Z,56.48
2023-04-24T10:13:34.941Z,55.19
2023-04-24T10:16:23.468Z,54.58
2023-04-24T10:19:10.410Z,56.37
2023-04-24T10:21:59.421Z,54.44
2023-04-24T10:24:47.486Z,54.64
2023-04-24T10:27:34.759Z,53.29
2023-04-24T10:30:22.311Z,54.38
2023-04-24T10:33:10.822Z,55.47
2023-04-24T10:35:59.476Z,54.41
2023-04-24T10:38:50.243Z,54.86
2023-04-24T10:41:39.823Z,56.62
2023-04-24T10:44:26.573Z,55.83
2023-04-24T10:47:16.049Z,55.28
2023-04-24T10:50:04.128Z,54.21
2023-04-24T10:52:52.447Z,54.34
2023-04-24T10:55:44.462Z,53.86
2023-04-24T10:58:39.605Z,54.34
2023-04-24T11:01:28.398Z,51.48
2023-04-24T11:04:15.649Z,53.05
2023-04-24T11:07:02.309Z,55.16
2023-04-24T11:10:02.147Z,54.36
2023-04-24T11:12:49.814Z,54.65
2023-04-24T11:15:36.592Z,55.80
2023-04-24T11:18:25.639Z,56.71
2023-04-24T11:21:13.392Z,58.56
2023-04-24T11:24:00.074Z,59.83
2023-04-24T11:26:47.122Z,59.82
2023-04-24T11:29:46.335Z,59.73
2023-04-24T11:32:37.840Z,58.58
2023-04-24T11:35:26.215Z,58.02
2023-04-24T11:38:24.255Z,56.32
2023-04-24T11:41:12.330Z,56.00
2023-04-24T11:43:59.988Z,57.92
2023-04-24T11:46:47.993Z,61.97
2023-04-24T11:49:34.817Z,62.17
2023-04-24T11:52:21.680Z,60.41
2023-04-24T11:55:10.077Z,62.29
2023-04-24T11:57:58.986Z,62.55
2023-04-24T12:00:46.801Z,60.82
2023-04-24T12:03:35.089Z,63.15
2023-04-24T12:06:22.390Z,63.92
2023-04-24T12:09:17.797Z,63.71
2023-04-24T12:12:08.483Z,64.33
2023-04-24T12:14:57.044Z,65.75
2023-04-24T12:17:44.844Z,63.79
2023-04-24T12:20:37.304Z,63.67
2023-04-24T12:23:37.370Z,68.29
2023-04-24T12:26:25.659Z,71.57
2023-04-24T12:29:13.345Z,76.96
2023-04-24T12:31:59.758Z,80.42
2023-04-24T12:34:47.236Z,81.49
2023-04-24T12:37:37.546Z,78.79
2023-04-24T12:40:27.424Z,79.04
2023-04-24T12:43:18.658Z,75.45
2023-04-24T12:46:05.903Z,69.21
2023-04-24T12:48:54.329Z,65.43
2023-04-24T12:51:41.316Z,65.54
2023-04-24T12:54:34.782Z,68.18
2023-04-24T12:57:25.009Z,66.56
2023-04-24T13:00:12.993Z,69.34
2023-04-24T13:03:06.561Z,68.58
2023-04-24T13:05:57.053Z,67.35
2023-04-24T13:08:43.488Z,65.93
2023-04-24T13:11:31.689Z,67.86
2023-04-24T13:14:18.477Z,66.25
2023-04-24T13:17:12.172Z,64.87
2023-04-24T13:19:58.553Z,63.85
2023-04-24T13:22:45.217Z,61.34
2023-04-24T13:25:36.950Z,59.80
2023-04-24T13:28:28.737Z,60.61
2023-04-24T13:31:15.921Z,62.17
2023-04-24T13:34:03.312Z,57.81
2023-04-24T13:36:51.418Z,60.92
2023-04-24T13:39:39.444Z,60.76
2023-04-24T13:42:26.249Z,64.71
2023-04-24T13:45:24.577Z,67.12
2023-04-24T13:48:12.100Z,62.91
2023-04-24T13:51:01.979Z,62.52
2023-04-24T13:53:48.688Z,68.15
2023-04-24T13:56:35.734Z,63.72
2023-04-24T13:59:22.881Z,63.17
2023-04-24T14:02:11.805Z,65.11
2023-04-24T14:05:00.239Z,64.13
2023-04-24T14:07:46.792Z,65.88
2023-04-24T14:10:33.784Z,66.47
2023-04-24T14:13:20.601Z,65.80
2023-04-24T14:16:08.543Z,66.77
2023-04-24T14:18:57.323Z,64.44
2023-04-24T14:21:44.140Z,61.71
2023-04-24T14:24:30.954Z,63.16
2023-04-24T14:27:17.737Z,62.24
2023-04-24T14:30:05.531Z,57.91
2023-04-24T14:32:52.286Z,59.82
2023-04-24T14:35:40.082Z,54.01
2023-04-24T14:38:26.759Z,52.89
2023-04-24T14:41:14.359Z,54.59
2023-04-24T14:44:01.217Z,53.95
2023-04-24T14:46:48.011Z,53.84
2023-04-24T14:49:34.776Z,53.54
2023-04-24T14:52:23.040Z,53.12
2023-04-24T14:55:10.342Z,48.62
2023-04-24T14:57:57.194Z,47.57
2023-04-24T15:00:43.857Z,42.29
2023-04-24T15:03:30.984Z,46.04
2023-04-24T15:06:18.036Z,44.75
2023-04-24T15:09:06.071Z,43.88
2023-04-24T15:11:53.404Z,43.48
2023-04-24T15:14:39.848Z,42.43
2023-04-24T15:17:26.539Z,42.36
2023-04-24T15:20:13.192Z,41.29
2023-04-24T15:23:00.911Z,41.49
2023-04-24T15:25:49.357Z,41.62
2023-04-24T15:28:36.227Z,41.99
2023-04-24T15:31:24.073Z,41.77
2023-04-24T15:34:10.865Z,42.09
2023-04-24T15:36:57.792Z,40.81
2023-04-24T15:39:47.049Z,42.05
2023-04-24T15:42:35.297Z,41.92
2023-04-24T15:45:22.167Z,41.66
2023-04-24T15:48:08.988Z,42.75
2023-04-24T15:50:55.748Z,42.80
2023-04-24T15:53:42.542Z,41.48
2023-04-24T15:56:31.461Z,42.97
2023-04-24T15:59:20.178Z,42.68
2023-04-24T16:02:07.352Z,44.16
2023-04-24T16:04:54.929Z,45.31
2023-04-24T16:07:41.702Z,42.87
2023-04-24T16:10:28.591Z,42.37
2023-04-24T16:13:15.418Z,42.65
2023-04-24T16:16:03.479Z,43.65
2023-04-24T16:18:50.516Z,44.44
2023-04-24T16:21:37.704Z,45.75
2023-04-24T16:24:24.532Z,45.66
2023-04-24T16:27:11.140Z,45.86
2023-04-24T16:29:58.067Z,46.97
2023-04-24T16:32:46.328Z,45.42
2023-04-24T16:35:33.050Z,46.90
2023-04-24T16:38:19.632Z,47.13
2023-04-24T16:41:06.779Z,48.48
2023-04-24T16:43:53.433Z,45.22
2023-04-24T16:46:40.120Z,48.15
2023-04-24T16:49:31.193Z,47.99
2023-04-24T16:52:17.966Z,49.59
2023-04-24T16:55:05.136Z,49.71
2023-04-24T16:57:51.581Z,48.43
2023-04-24T17:00:38.652Z,48.92
2023-04-24T17:03:25.449Z,49.01
2023-04-24T17:06:13.456Z,50.00
2023-04-24T17:09:00.960Z,50.55
2023-04-24T17:11:47.564Z,51.03
2023-04-24T17:14:34.383Z,53.69
2023-04-24T17:17:23.185Z,55.46
2023-04-24T17:20:21.463Z,54.64
2023-04-24T17:23:12.079Z,56.49
2023-04-24T17:25:58.822Z,58.49
2023-04-24T17:28:45.654Z,57.27
2023-04-24T17:31:32.345Z,60.73
2023-04-24T17:34:19.014Z,59.15
2023-04-24T17:37:05.801Z,60.83
2023-04-24T17:39:54.147Z,61.47
2023-04-24T17:42:41.630Z,61.48
2023-04-24T17:45:28.073Z,61.82
2023-04-24T17:48:15.630Z,62.72
2023-04-24T17:51:02.211Z,63.90
2023-04-24T17:53:49.519Z,64.65
2023-04-24T17:56:37.769Z,68.51
2023-04-24T17:59:24.611Z,68.65
2023-04-24T18:02:11.200Z,70.02
2023-04-24T18:04:57.845Z,70.11
2023-04-24T18:07:44.693Z,71.83
2023-04-24T18:10:32.855Z,74.40
2023-04-24T18:13:20.932Z,76.60
2023-04-24T18:16:07.785Z,77.55
2023-04-24T18:18:54.958Z,78.06
2023-04-24T18:21:41.712Z,78.37
2023-04-24T18:24:28.302Z,76.27
2023-04-24T18:27:15.109Z,76.67
2023-04-24T18:30:03.764Z,79.01
2023-04-24T18:32:50.797Z,78.76
2023-04-24T18:35:37.694Z,77.41
2023-04-24T18:38:26.016Z,78.71
2023-04-24T18:41:14.272Z,78.52
2023-04-24T18:44:01.489Z,72.95
2023-04-24T18:46:49.740Z,73.93
2023-04-24T18:49:36.696Z,70.50
2023-04-24T18:52:23.300Z,71.95
2023-04-24T18:55:10.944Z,73.24
2023-04-24T18:57:57.736Z,75.34
2023-04-24T19:00:44.541Z,73.97
2023-04-24T19:03:32.713Z,74.21
2023-04-24T19:06:19.691Z,75.76
2023-04-24T19:09:06.451Z,74.40
2023-04-24T19:11:53.910Z,75.46
2023-04-24T19:14:41.071Z,75.90
2023-04-24T19:17:28.675Z,76.31
2023-04-24T19:20:16.659Z,76.03
2023-04-24T19:23:03.261Z,75.21
2023-04-24T19:25:50.149Z,77.14
2023-04-24T19:28:38.588Z,77.54
2023-04-24T19:31:25.934Z,76.96
2023-04-24T19:34:16.592Z,78.05
2023-04-24T19:37:06.194Z,76.69
2023-04-24T19:39:53.025Z,76.84
2023-04-24T19:42:44.186Z,77.25
2023-04-24T19:45:31.305Z,79.19
2023-04-24T19:48:18.227Z,79.68
2023-04-24T19:51:05.198Z,80.33
2023-04-24T19:53:52.937Z,80.48
2023-04-24T19:56:39.676Z,80.65
2023-04-24T19:59:26.616Z,82.18
2023-04-24T20:02:14.104Z,81.24
2023-04-24T20:05:00.698Z,81.28
2023-04-24T20:07:52.602Z,80.50
2023-04-24T20:10:48.669Z,80.51
2023-04-24T20:13:36.230Z,80.48
2023-04-24T20:16:23.005Z,80.19
2023-04-24T20:19:09.700Z,81.55
2023-04-24T20:21:56.616Z,81.42
2023-04-24T20:24:43.820Z,80.11
2023-04-24T20:27:31.849Z,80.31
2023-04-24T20:30:18.540Z,78.94
2023-04-24T20:33:05.600Z,81.06
2023-04-24T20:35:52.518Z,80.21
2023-04-24T20:38:38.909Z,81.35
2023-04-24T20:41:26.397Z,79.38
2023-04-24T20:44:14.937Z,82.11
2023-04-24T20:47:02.478Z,79.39
2023-04-24T20:49:49.380Z,82.97
2023-04-24T20:52:35.834Z,82.48
2023-04-24T20:55:22.619Z,81.34
2023-04-24T20:58:09.757Z,82.89
2023-04-24T21:00:57.668Z,80.26
2023-04-24T21:03:45.250Z,81.35
2023-04-24T21:06:32.101Z,81.68
2023-04-24T21:09:18.880Z,83.35
2023-04-24T21:12:06.350Z,82.09
2023-04-24T21:14:53.059Z,80.90
2023-04-24T21:17:41.293Z,81.96
2023-04-24T21:20:28.161Z,83.46
2023-04-24T21:23:15.057Z,84.47
2023-04-24T21:26:01.956Z,84.76
2023-04-24T21:28:48.568Z,86.32
2023-04-24T21:31:35.544Z,84.71
2023-04-24T21:34:23.741Z,84.87
2023-04-24T21:37:11.241Z,85.18
2023-04-24T21:39:57.859Z,85.75
2023-04-24T21:42:44.822Z,88.71
2023-04-24T21:45:31.473Z,89.04
2023-04-24T21:48:18.300Z,87.23
2023-04-24T21:51:06.527Z,87.06
2023-04-24T21:53:53.070Z,87.45
2023-04-24T21:56:41.481Z,88.98
2023-04-24T21:59:28.416Z,89.37
2023-04-24T22:02:15.365Z,89.53
2023-04-24T22:05:04.594Z,89.25
2023-04-24T22:07:54.579Z,91.53
2023-04-24T22:10:42.400Z,89.77
2023-04-24T22:13:30.358Z,91.29
2023-04-24T22:16:18.112Z,90.25
2023-04-24T22:19:05.088Z,89.90
2023-04-24T22:21:51.913Z,90.22
2023-04-24T22:24:40.175Z,89.81
2023-04-24T22:27:26.816Z,89.57
2023-04-24T22:30:13.880Z,88.91
2023-04-24T22:33:00.508Z,89.32
2023-04-24T22:35:47.126Z,91.37
2023-04-24T22:38:34.054Z,91.94
2023-04-24T22:41:22.887Z,93.01
2023-04-24T22:44:09.432Z,93.15
2023-04-24T22:46:56.344Z,92.19
2023-04-24T22:49:44.241Z,92.64
2023-04-24T22:52:30.965Z,95.65
2023-04-24T22:55:18.123Z,94.50
2023-04-24T22:58:06.518Z,93.36
2023-04-24T23:00:58.290Z,94.35
2023-04-24T23:03:46.301Z,94.79
2023-04-24T23:06:32.840Z,94.93
2023-04-24T23:09:19.753Z,94.93
2023-04-24T23:12:10.369Z,95.89
2023-04-24T23:14:58.669Z,95.31
2023-04-24T23:17:45.380Z,95.52
2023-04-24T23:20:32.324Z,97.09
2023-04-24T23:23:19.632Z,98.28
2023-04-24T23:26:07.381Z,99.46
2023-04-24T23:28:54.427Z,98.56
2023-04-24T23:31:42.767Z,98.81
2023-04-24T23:34:29.437Z,98.92
2023-04-24T23:37:19.703Z,99.26
2023-04-24T23:40:09.825Z,99.17
2023-04-24T23:43:06.263Z,97.13
2023-04-24T23:45:53.050Z,96.16
2023-04-24T23:48:41.069Z,96.45
2023-04-24T23:51:28.038Z,96.53
2023-04-24T23:54:14.635Z,96.94
2023-04-24T23:57:01.499Z,95.39
2023-04-24T23:59:48.403Z,96.27
